Time;durP1;ratioP1;P1;durP2;ratioP2;P2;SDS_P1;SDS_P2;PMS_P1;PMS_P2;Temp;Humidity;BMP_temperature;BMP_pressure;BME280_temperature;BME280_humidity;BME280_pressure;Samples;Min_cycle;Max_cycle;Signal;HPM_P1;HPM_P2
2023/03/28 00:01:24;;;;;;;;;;;2.60;1.00;;;;;;5077315;28;19908;-78
2023/03/28 00:04:00;;;;;;;;;;;2.60;1.00;;;;;;5075677;28;19994;-79
2023/03/28 00:06:30;;;;;;;;;;;2.60;1.00;;;;;;5075356;28;19904;-79
2023/03/28 00:09:12;;;;;;;;;;;2.60;1.00;;;;;;5087708;28;20271;-78
2023/03/28 00:11:42;;;;;;;;;;;2.60;1.00;;;;;;5086923;28;19908;-79
2023/03/28 00:14:13;;;;;;;;;;;2.50;1.00;;;;;;5077315;28;20300;-78
2023/03/28 00:16:39;;;;;;;;;;;2.60;1.00;;;;;;5095907;28;19918;-75
2023/03/28 00:19:06;;;;;;;;;;;2.60;1.00;;;;;;5095632;28;19915;-76
2023/03/28 00:21:33;;;;;;;;;;;2.60;1.00;;;;;;5095430;28;19957;-76
2023/03/28 00:24:02;;;;;;;;;;;2.50;1.00;;;;;;5095116;28;19904;-76
2023/03/28 00:26:28;;;;;;;;;;;2.50;1.00;;;;;;5095019;28;19904;-76
2023/03/28 00:28:55;;;;;;;;;;;2.60;1.00;;;;;;5095116;28;19904;-76
2023/03/28 00:31:37;;;;;;;;;;;2.50;1.00;;;;;;5095480;28;19908;-76
2023/03/28 00:34:03;;;;;;;;;;;2.50;1.00;;;;;;5094921;28;20359;-76
2023/03/28 00:36:31;;;;;;;;;;;2.50;1.00;;;;;;5094763;28;19908;-76
2023/03/28 00:39:06;;;;;;;;;;;2.50;1.00;;;;;;5094825;28;20382;-76
2023/03/28 00:41:39;;;;;;;;;;;2.50;1.00;;;;;;5076088;28;19908;-75
2023/03/28 00:44:23;;;;;;;;;;;2.50;1.00;;;;;;5056609;28;20318;-76
2023/03/28 00:47:26;;;;;;;;;;;2.40;1.00;;;;;;5075135;28;19911;-78
2023/03/28 00:50:18;;;;;;;;;;;2.40;1.00;;;;;;5052789;28;20264;-78
2023/03/28 00:52:48;;;;;;;;;;;2.40;1.00;;;;;;4995995;28;20368;-78
2023/03/28 00:55:36;;;;;;;;;;;2.40;1.00;;;;;;4996722;28;19912;-80
2023/03/28 00:58:08;;;;;;;;;;;2.40;1.00;;;;;;4996386;28;19921;-79
2023/03/28 01:00:49;;;;;;;;;;;2.40;1.00;;;;;;5013608;28;19910;-78
2023/03/28 01:03:36;;;;;;;;;;;2.40;1.00;;;;;;5028548;28;19913;-78
2023/03/28 01:06:07;;;;;;;;;;;2.40;1.00;;;;;;5032661;28;19912;-78
2023/03/28 01:08:48;;;;;;;;;;;2.30;1.00;;;;;;5032339;28;19912;-78
2023/03/28 01:11:31;;;;;;;;;;;2.40;1.00;;;;;;5015862;28;20008;-78
2023/03/28 01:14:05;;;;;;;;;;;2.30;1.00;;;;;;5032217;28;19939;-79
2023/03/28 01:16:55;;;;;;;;;;;2.30;1.00;;;;;;5032419;28;19983;-76
2023/03/28 01:19:32;;;;;;;;;;;2.20;1.00;;;;;;5031992;28;19905;-76
2023/03/28 01:22:24;;;;;;;;;;;2.20;1.00;;;;;;5026458;28;20253;-75
2023/03/28 01:25:03;;;;;;;;;;;2.20;1.00;;;;;;5025264;28;20284;-75
2023/03/28 01:28:01;;;;;;;;;;;2.20;1.00;;;;;;5032139;28;20411;-75
2023/03/28 01:30:30;;;;;;;;;;;2.10;1.00;;;;;;5066475;28;19905;-75
2023/03/28 01:33:00;;;;;;;;;;;2.00;1.00;;;;;;5056188;28;19913;-75
2023/03/28 01:35:48;;;;;;;;;;;1.90;1.00;;;;;;5055917;28;20283;-75
2023/03/28 01:38:21;;;;;;;;;;;1.80;1.00;;;;;;5074186;28;19908;-75
2023/03/28 01:41:05;;;;;;;;;;;1.70;1.00;;;;;;5073804;28;20278;-75
2023/03/28 01:43:42;;;;;;;;;;;1.60;1.00;;;;;;5073901;28;19905;-75
2023/03/28 01:46:15;;;;;;;;;;;1.50;1.00;;;;;;5074106;28;20366;-75
2023/03/28 01:48:48;;;;;;;;;;;1.40;1.00;;;;;;5073924;28;19998;-75
2023/03/28 01:51:35;;;;;;;;;;;1.40;1.00;;;;;;5073730;28;19939;-75
2023/03/28 01:54:25;;;;;;;;;;;1.30;1.00;;;;;;5073664;28;19908;-75
2023/03/28 01:57:11;;;;;;;;;;;1.10;1.00;;;;;;5073909;28;19957;-75
2023/03/28 01:59:46;;;;;;;;;;;1.00;1.00;;;;;;5032110;28;19920;-75
2023/03/28 02:02:18;;;;;;;;;;;0.90;1.00;;;;;;5032453;28;19905;-75
2023/03/28 02:04:45;;;;;;;;;;;0.80;1.00;;;;;;5031813;28;19927;-75
2023/03/28 02:07:12;;;;;;;;;;;0.80;1.00;;;;;;5031597;28;19905;-75
2023/03/28 02:09:41;;;;;;;;;;;0.70;1.00;;;;;;5031614;28;19905;-75
2023/03/28 02:12:18;;;;;;;;;;;0.60;1.00;;;;;;5031824;28;20411;-75
2023/03/28 02:14:45;;;;;;;;;;;0.60;1.00;;;;;;5031418;28;19967;-75
2023/03/28 02:17:14;;;;;;;;;;;0.50;1.00;;;;;;5031893;28;19909;-75
2023/03/28 02:19:45;;;;;;;;;;;0.50;1.00;;;;;;5031742;28;19971;-75
2023/03/28 02:22:18;;;;;;;;;;;0.50;1.00;;;;;;5038485;28;19932;-75
2023/03/28 02:24:55;;;;;;;;;;;0.50;1.00;;;;;;5051918;28;19908;-75
2023/03/28 02:27:42;;;;;;;;;;;0.50;1.00;;;;;;5051343;28;19978;-75
2023/03/28 02:30:08;;;;;;;;;;;0.40;1.00;;;;;;5051738;28;19966;-76
2023/03/28 02:32:49;;;;;;;;;;;0.40;1.00;;;;;;5051592;28;19951;-78
2023/03/28 02:35:48;;;;;;;;;;;0.30;1.00;;;;;;5054307;28;19962;-78
2023/03/28 02:38:36;;;;;;;;;;;0.30;1.00;;;;;;5077212;28;19958;-78
2023/03/28 02:41:25;;;;;;;;;;;0.30;1.00;;;;;;5076960;28;19944;-78
2023/03/28 02:44:07;;;;;;;;;;;0.30;1.00;;;;;;5077270;28;19912;-78
2023/03/28 02:46:41;;;;;;;;;;;0.20;1.00;;;;;;5077388;28;19926;-78
2023/03/28 02:49:25;;;;;;;;;;;0.20;1.00;;;;;;5077472;28;19996;-75
2023/03/28 02:51:58;;;;;;;;;;;0.20;1.00;;;;;;5076984;28;20005;-75
2023/03/28 02:54:36;;;;;;;;;;;0.20;1.00;;;;;;5076592;28;19989;-75
2023/03/28 02:57:10;;;;;;;;;;;0.10;1.00;;;;;;5076802;28;19977;-75
2023/03/28 03:00:10;;;;;;;;;;;0.20;1.00;;;;;;5076782;28;20011;-75
2023/03/28 03:03:09;;;;;;;;;;;0.10;1.00;;;;;;5055151;28;20418;-78
2023/03/28 03:05:42;;;;;;;;;;;0.10;1.00;;;;;;5054590;28;19915;-78
2023/03/28 03:08:30;;;;;;;;;;;0.10;1.00;;;;;;5054423;28;19912;-78
2023/03/28 03:11:30;;;;;;;;;;;0.10;1.00;;;;;;5054686;28;19912;-78
2023/03/28 03:13:56;;;;;;;;;;;0.10;1.00;;;;;;5054420;28;19904;-78
2023/03/28 03:16:37;;;;;;;;;;;0.10;1.00;;;;;;5054211;28;20004;-78
2023/03/28 03:19:06;;;;;;;;;;;0.20;1.00;;;;;;5046207;28;19909;-79
2023/03/28 03:24:35;;;;;;;;;;;0.30;1.00;;;;;;5034127;28;20019;-78
2023/03/28 03:27:06;;;;;;;;;;;0.30;1.00;;;;;;5034257;28;20009;-78
2023/03/28 03:30:00;;;;;;;;;;;0.30;1.00;;;;;;5034588;28;20300;-78
2023/03/28 03:32:30;;;;;;;;;;;0.30;1.00;;;;;;5034478;28;19916;-78
2023/03/28 03:35:12;;;;;;;;;;;0.40;1.00;;;;;;5034032;28;19909;-79
2023/03/28 03:37:54;;;;;;;;;;;0.40;1.00;;;;;;5028569;28;19908;-78
2023/03/28 03:40:30;;;;;;;;;;;0.40;1.00;;;;;;5076195;28;19904;-78
2023/03/28 03:43:06;;;;;;;;;;;0.40;1.00;;;;;;5076062;28;19905;-78
2023/03/28 03:45:44;;;;;;;;;;;0.40;1.00;;;;;;5074744;28;20000;-80
2023/03/28 03:48:18;;;;;;;;;;;0.40;1.00;;;;;;5076176;28;20378;-78
2023/03/28 03:50:44;;;;;;;;;;;0.30;1.00;;;;;;5093770;28;19915;-79
2023/03/28 03:53:18;;;;;;;;;;;0.30;1.00;;;;;;5095799;28;19904;-78
2023/03/28 03:56:06;;;;;;;;;;;0.30;1.00;;;;;;5095944;28;19904;-79
2023/03/28 03:59:06;;;;;;;;;;;0.20;1.00;;;;;;5077605;28;19904;-78
2023/03/28 04:01:32;;;;;;;;;;;0.10;1.00;;;;;;5077508;28;20049;-78
2023/03/28 04:03:58;;;;;;;;;;;0.00;1.00;;;;;;5096281;28;19947;-75
2023/03/28 04:06:24;;;;;;;;;;;0.00;1.00;;;;;;5077296;28;19904;-77
2023/03/28 04:11:52;;;;;;;;;;;-0.10;1.00;;;;;;5075840;28;19919;-90
2023/03/28 04:14:24;;;;;;;;;;;-0.20;1.00;;;;;;5058143;28;19904;-91
2023/03/28 04:26:01;;;;;;;;;;;-0.30;1.00;;;;;;5095707;28;19946;-92
2023/03/28 04:29:02;;;;;;;;;;;-0.30;1.00;;;;;;5077853;28;20418;-92
2023/03/28 04:38:06;;;;;;;;;;;-0.20;1.00;;;;;;5075120;28;19919;-91
2023/03/28 04:40:38;;;;;;;;;;;-0.10;1.00;;;;;;5057588;28;20398;-91
2023/03/28 04:46:07;;;;;;;;;;;-0.10;1.00;;;;;;5075357;28;20382;-91
2023/03/28 04:51:35;;;;;;;;;;;-0.10;1.00;;;;;;5075123;28;20382;-92
2023/03/28 04:57:04;;;;;;;;;;;0.00;1.00;;;;;;5075221;28;20398;-92
2023/03/28 05:02:33;;;;;;;;;;;-0.10;1.00;;;;;;5075037;28;19915;-92
2023/03/28 05:04:58;;;;;;;;;;;-0.10;1.00;;;;;;5058000;28;19904;-92
2023/03/28 05:07:25;;;;;;;;;;;-0.10;1.00;;;;;;5057306;28;19955;-91
2023/03/28 05:09:50;;;;;;;;;;;-0.10;1.00;;;;;;5053486;28;19905;-91
2023/03/28 05:12:16;;;;;;;;;;;-0.10;1.00;;;;;;5037016;28;20352;-91
2023/03/28 05:14:41;;;;;;;;;;;-0.20;1.00;;;;;;5036837;28;19920;-92
2023/03/28 05:17:07;;;;;;;;;;;-0.20;1.00;;;;;;5036678;28;19908;-92
2023/03/28 05:19:32;;;;;;;;;;;-0.20;1.00;;;;;;5037315;28;19904;-91
2023/03/28 05:21:58;;;;;;;;;;;-0.30;1.00;;;;;;5036605;28;20005;-91
2023/03/28 05:24:23;;;;;;;;;;;-0.30;1.00;;;;;;5036751;28;19912;-91
2023/03/28 05:26:49;;;;;;;;;;;-0.20;1.00;;;;;;5036654;28;19928;-91
2023/03/28 05:29:14;;;;;;;;;;;-0.20;1.00;;;;;;5036435;28;20379;-91
2023/03/28 05:31:40;;;;;;;;;;;-0.30;1.00;;;;;;5035414;28;19908;-84
2023/03/28 05:34:05;;;;;;;;;;;-0.30;1.00;;;;;;5052861;28;19912;-87
2023/03/28 05:36:31;;;;;;;;;;;-0.40;1.00;;;;;;5053247;28;19916;-89
2023/03/28 05:38:56;;;;;;;;;;;-0.30;1.00;;;;;;5036240;28;19904;-89
2023/03/28 05:41:22;;;;;;;;;;;-0.30;1.00;;;;;;5057019;28;19908;-89
2023/03/28 05:43:47;;;;;;;;;;;-0.30;1.00;;;;;;5056922;28;19987;-88
2023/03/28 05:46:13;;;;;;;;;;;-0.30;1.00;;;;;;5074639;28;19949;-88
2023/03/28 05:48:39;;;;;;;;;;;-0.30;1.00;;;;;;5056939;28;19905;-85
2023/03/28 05:51:05;;;;;;;;;;;-0.20;1.00;;;;;;5074016;28;19959;-83
2023/03/28 05:53:30;;;;;;;;;;;-0.20;1.00;;;;;;5073916;28;19969;-83
2023/03/28 05:55:56;;;;;;;;;;;-0.10;1.00;;;;;;5073483;28;19904;-83
2023/03/28 05:58:21;;;;;;;;;;;-0.20;1.00;;;;;;5055872;28;19989;-83
2023/03/28 06:00:47;;;;;;;;;;;-0.10;1.00;;;;;;5073739;28;19911;-83
2023/03/28 06:03:14;;;;;;;;;;;-0.10;1.00;;;;;;5074216;28;19905;-83
2023/03/28 06:05:40;;;;;;;;;;;-0.10;1.00;;;;;;5056813;28;19994;-87
2023/03/28 06:08:08;;;;;;;;;;;0.00;1.00;;;;;;5056692;28;20351;-87
2023/03/28 06:10:34;;;;;;;;;;;0.00;1.00;;;;;;5060069;28;19904;-88
2023/03/28 06:12:59;;;;;;;;;;;0.10;1.00;;;;;;5060564;28;20416;-88
2023/03/28 06:15:26;;;;;;;;;;;0.20;1.00;;;;;;5060247;28;19916;-87
2023/03/28 06:17:51;;;;;;;;;;;0.20;1.00;;;;;;5078460;28;19908;-87
2023/03/28 06:20:17;;;;;;;;;;;0.30;1.00;;;;;;5077767;28;20394;-83
2023/03/28 06:22:42;;;;;;;;;;;0.40;1.00;;;;;;5059342;28;19904;-83
2023/03/28 06:25:08;;;;;;;;;;;0.50;1.00;;;;;;5077372;28;19905;-83
2023/03/28 06:27:34;;;;;;;;;;;0.50;1.00;;;;;;5077654;28;19904;-82
2023/03/28 06:30:00;;;;;;;;;;;0.60;1.00;;;;;;5077317;28;19927;-83
2023/03/28 06:32:26;;;;;;;;;;;0.70;1.00;;;;;;5077713;28;20335;-83
2023/03/28 06:34:54;;;;;;;;;;;0.90;1.00;;;;;;5059806;28;20348;-83
2023/03/28 06:37:20;;;;;;;;;;;0.90;1.00;;;;;;5059089;28;20005;-83
2023/03/28 06:39:49;;;;;;;;;;;0.90;1.00;;;;;;5076801;28;19904;-83
2023/03/28 06:42:15;;;;;;;;;;;1.00;1.00;;;;;;5077009;28;19908;-83
2023/03/28 06:44:41;;;;;;;;;;;1.10;1.00;;;;;;5059052;28;19912;-83
2023/03/28 06:47:06;;;;;;;;;;;1.20;1.00;;;;;;5058888;28;19904;-83
2023/03/28 06:49:32;;;;;;;;;;;1.30;1.00;;;;;;5077083;28;19967;-87
2023/03/28 06:51:57;;;;;;;;;;;1.40;1.00;;;;;;5059784;28;20007;-88
2023/03/28 06:54:23;;;;;;;;;;;1.50;1.00;;;;;;5077606;28;19904;-88
2023/03/28 06:56:48;;;;;;;;;;;1.60;1.00;;;;;;5059647;28;19947;-88
2023/03/28 06:59:14;;;;;;;;;;;1.80;1.00;;;;;;5077567;28;19904;-89
2023/03/28 07:01:39;;;;;;;;;;;1.90;1.00;;;;;;5077370;28;19943;-88
2023/03/28 07:04:05;;;;;;;;;;;2.10;1.00;;;;;;5077620;28;19909;-84
2023/03/28 07:06:31;;;;;;;;;;;2.20;1.00;;;;;;5076505;28;19904;-83
2023/03/28 07:08:57;;;;;;;;;;;2.40;1.00;;;;;;5058862;28;19911;-93
2023/03/28 07:11:24;;;;;;;;;;;2.50;1.00;;;;;;5059477;28;19919;-94
2023/03/28 07:13:50;;;;;;;;;;;2.60;1.00;;;;;;5059430;28;19905;-93
2023/03/28 07:16:15;;;;;;;;;;;2.80;1.00;;;;;;5059039;28;19916;-92
2023/03/28 07:18:41;;;;;;;;;;;2.90;1.00;;;;;;5059259;28;19905;-92
2023/03/28 07:21:07;;;;;;;;;;;3.00;1.00;;;;;;5059479;28;19904;-90
2023/03/28 07:23:32;;;;;;;;;;;3.10;1.00;;;;;;5059018;28;19952;-90
2023/03/28 07:25:58;;;;;;;;;;;3.20;1.00;;;;;;5059221;28;19904;-90
2023/03/28 07:28:23;;;;;;;;;;;3.30;1.00;;;;;;5076859;28;19904;-90
2023/03/28 07:30:51;;;;;;;;;;;3.40;1.00;;;;;;5059132;28;20264;-90
2023/03/28 07:33:17;;;;;;;;;;;3.50;1.00;;;;;;5059058;28;19916;-88
2023/03/28 07:35:42;;;;;;;;;;;3.70;1.00;;;;;;5059040;28;19904;-89
2023/03/28 07:38:08;;;;;;;;;;;3.80;1.00;;;;;;5058886;28;20370;-89
2023/03/28 07:40:34;;;;;;;;;;;3.90;1.00;;;;;;5076830;28;19904;-89
2023/03/28 07:43:00;;;;;;;;;;;4.00;1.00;;;;;;5076909;28;19918;-89
2023/03/28 07:45:25;;;;;;;;;;;4.10;1.00;;;;;;5059383;28;19969;-89
2023/03/28 07:47:51;;;;;;;;;;;4.20;1.00;;;;;;5059049;28;19905;-89
2023/03/28 07:50:16;;;;;;;;;;;4.40;1.00;;;;;;5058852;28;20402;-79
2023/03/28 07:52:44;;;;;;;;;;;4.40;1.00;;;;;;5075790;28;19904;-80
2023/03/28 07:55:10;;;;;;;;;;;4.50;1.00;;;;;;5075755;28;19974;-79
2023/03/28 07:57:35;;;;;;;;;;;4.50;1.00;;;;;;5057634;28;19977;-79
2023/03/28 08:00:03;;;;;;;;;;;4.60;1.00;;;;;;5075511;28;19999;-79
2023/03/28 08:02:29;;;;;;;;;;;4.70;1.00;;;;;;5075735;28;19973;-79
2023/03/28 08:04:54;;;;;;;;;;;4.60;1.00;;;;;;5075633;28;20421;-85
2023/03/28 08:07:20;;;;;;;;;;;4.70;1.00;;;;;;5058115;28;19904;-86
2023/03/28 08:09:46;;;;;;;;;;;4.80;1.00;;;;;;5075809;28;19904;-86
2023/03/28 08:12:11;;;;;;;;;;;5.00;1.00;;;;;;5058288;28;19905;-86
2023/03/28 08:14:37;;;;;;;;;;;5.10;1.00;;;;;;5075571;28;20365;-86
2023/03/28 08:17:06;;;;;;;;;;;5.10;1.00;;;;;;5058108;28;19908;-96
2023/03/28 08:19:31;;;;;;;;;;;5.30;1.00;;;;;;5058330;28;19904;-93
2023/03/28 08:22:01;;;;;;;;;;;5.40;1.00;;;;;;5058422;28;19904;-90
2023/03/28 08:24:26;;;;;;;;;;;5.40;1.00;;;;;;5075642;28;19904;-91
2023/03/28 08:26:52;;;;;;;;;;;5.90;1.00;;;;;;5057809;28;19905;-91
2023/03/28 08:29:19;;;;;;;;;;;5.50;1.00;;;;;;5057741;28;19911;-91
2023/03/28 08:31:44;;;;;;;;;;;5.50;1.00;;;;;;5057385;28;20348;-88
2023/03/28 08:34:10;;;;;;;;;;;5.40;1.00;;;;;;5057827;28;19915;-91
2023/03/28 08:36:48;;;;;;;;;;;5.60;1.00;;;;;;5058259;28;19912;-96
2023/03/28 08:45:37;;;;;;;;;;;5.80;1.00;;;;;;5075324;28;19911;-96
2023/03/28 08:48:30;;;;;;;;;;;5.90;1.00;;;;;;5058036;28;20377;-96
2023/03/28 09:00:14;;;;;;;;;;;6.40;1.00;;;;;;5075196;28;19971;-84
2023/03/28 09:02:41;;;;;;;;;;;6.40;1.00;;;;;;5074976;28;19912;-90
2023/03/28 09:05:17;;;;;;;;;;;6.50;1.00;;;;;;5057666;28;19911;-84
2023/03/28 09:08:08;;;;;;;;;;;6.40;1.00;;;;;;5074731;28;19943;-85
2023/03/28 09:10:38;;;;;;;;;;;6.30;1.00;;;;;;4996938;28;19905;-89
2023/03/28 09:13:03;;;;;;;;;;;6.30;1.00;;;;;;5013416;28;19905;-84
2023/03/28 09:15:37;;;;;;;;;;;6.50;1.00;;;;;;5013607;28;19913;-87
2023/03/28 09:18:24;;;;;;;;;;;6.60;1.00;;;;;;5016179;28;20279;-96
2023/03/28 09:21:08;;;;;;;;;;;6.60;1.00;;;;;;4998151;28;19916;-87
2023/03/28 09:23:37;;;;;;;;;;;6.90;1.00;;;;;;4997241;28;19948;-87
2023/03/28 09:26:17;;;;;;;;;;;7.10;1.00;;;;;;4997173;28;20004;-88
2023/03/28 09:29:02;;;;;;;;;;;7.30;1.00;;;;;;4997250;28;19952;-88
2023/03/28 09:31:31;;;;;;;;;;;7.60;1.00;;;;;;4997083;28;19909;-88
2023/03/28 09:33:58;;;;;;;;;;;7.80;1.00;;;;;;4997184;28;19910;-88
2023/03/28 09:36:27;;;;;;;;;;;8.00;1.00;;;;;;4997721;28;19909;-88
2023/03/28 09:38:55;;;;;;;;;;;8.10;1.00;;;;;;5013294;28;19912;-88
2023/03/28 09:41:26;;;;;;;;;;;8.20;1.00;;;;;;4997123;28;20349;-88
2023/03/28 09:43:55;;;;;;;;;;;8.50;1.00;;;;;;4997888;28;20313;-88
2023/03/28 09:46:27;;;;;;;;;;;8.20;1.00;;;;;;5006563;28;19944;-88
2023/03/28 09:48:52;;;;;;;;;;;8.10;1.00;;;;;;5078631;28;19900;-88
2023/03/28 09:51:18;;;;;;;;;;;8.40;1.00;;;;;;5061278;28;19999;-88
2023/03/28 09:53:44;;;;;;;;;;;8.30;1.00;;;;;;5061033;28;19904;-88
2023/03/28 09:56:27;;;;;;;;;;;8.60;1.00;;;;;;5060848;28;19908;-87
2023/03/28 09:58:54;;;;;;;;;;;8.20;1.00;;;;;;5060758;28;19927;-87
2023/03/28 10:01:38;;;;;;;5.32;0.90;;;8.30;1.00;;;;;;5077077;28;20409;-88
2023/03/28 10:04:09;;;;;;;7.47;1.30;;;8.20;1.00;;;;;;5078204;28;20169;-88
2023/03/28 10:06:37;;;;;;;4.30;0.90;;;8.50;1.00;;;;;;5078577;28;20455;-88
2023/03/28 10:09:18;;;;;;;4.03;1.10;;;8.60;1.00;;;;;;5060162;28;20416;-87
2023/03/28 10:11:58;;;;;;;4.53;1.00;;;8.70;1.00;;;;;;5077791;28;20372;-87
2023/03/28 10:14:41;;;;;;;6.50;0.93;;;8.60;1.00;;;;;;5060147;28;20425;-87
2023/03/28 10:17:24;;;;;;;3.97;0.87;;;8.30;1.00;;;;;;5059813;28;20482;-87
2023/03/28 10:19:51;;;;;;;2.00;0.80;;;8.30;1.00;;;;;;5059983;28;20437;-87
2023/03/28 10:22:30;;;;;;;4.17;1.00;;;8.40;1.00;;;;;;5077995;28;20393;-87
2023/03/28 10:24:56;;;;;;;2.87;1.03;;;8.50;1.00;;;;;;5077000;28;20488;-80
2023/03/28 10:27:36;;;;;;;9.10;0.87;;;8.20;1.00;;;;;;5077136;28;20376;-80
2023/03/28 10:30:23;;;;;;;2.93;0.80;;;8.20;1.00;;;;;;5076761;28;20419;-80
2023/03/28 10:33:16;;;;;;;1.60;0.80;;;8.40;1.00;;;;;;5076567;28;20412;-80
2023/03/28 10:35:52;;;;;;;6.70;1.30;;;8.80;1.00;;;;;;5076869;28;20389;-81
2023/03/28 10:38:20;;;;;;;2.97;1.13;;;9.00;1.00;;;;;;5076835;28;20397;-80
2023/03/28 10:41:02;;;;;;;5.43;1.03;;;8.90;1.00;;;;;;5076687;28;20393;-80
2023/03/28 10:43:37;;;;;;;5.70;1.50;;;9.10;1.00;;;;;;5058551;28;20779;-80
2023/03/28 10:46:11;;;;;;;4.40;1.13;;;9.40;1.00;;;;;;5076537;28;20377;-80
2023/03/28 10:48:38;;;;;;;6.07;1.10;;;9.10;1.00;;;;;;5076521;28;20385;-81
2023/03/28 10:51:09;;;;;;;2.83;0.80;;;9.10;1.00;;;;;;5058746;28;20405;-78
2023/03/28 10:53:53;;;;;;;8.83;1.30;;;9.10;1.00;;;;;;5076532;28;20371;-76
2023/03/28 10:56:28;;;;;;;2.50;1.13;;;9.20;1.00;;;;;;5075969;28;20457;-76
2023/03/28 10:59:12;;;;;;;3.00;1.17;;;9.40;1.00;;;;;;5076133;28;20403;-76
2023/03/28 11:01:44;;;;;;;5.00;0.97;;;9.60;1.00;;;;;;5058227;28;20500;-76
2023/03/28 11:04:28;;;;;;;3.63;0.90;;;9.60;1.00;;;;;;5076444;28;20473;-76
2023/03/28 11:07:10;;;;;;;4.13;1.30;;;9.60;1.00;;;;;;5076459;28;20435;-76
2023/03/28 11:09:58;;;;;;;2.00;1.10;;;9.60;1.00;;;;;;5076031;28;21022;-76
2023/03/28 11:12:30;;;;;;;2.27;1.03;;;9.90;1.00;;;;;;5057975;28;20444;-76
2023/03/28 11:15:32;;;;;;;2.33;0.80;;;9.90;1.00;;;;;;5057888;28;20444;-76
2023/03/28 11:18:23;;;;;;;6.43;1.63;;;9.80;1.00;;;;;;5076209;28;20482;-76
2023/03/28 11:21:25;;;;;;;2.90;0.90;;;10.00;1.00;;;;;;5075736;28;20386;-76
2023/03/28 11:24:09;;;;;;;3.30;1.00;;;10.30;1.00;;;;;;5075732;28;20381;-76
2023/03/28 11:26:58;;;;;;;8.47;1.40;;;10.60;1.00;;;;;;5075606;28;20360;-76
2023/03/28 11:29:48;;;;;;;6.07;1.00;;;10.70;1.00;;;;;;5013992;28;20513;-76
2023/03/28 11:32:18;;;;;;;6.20;1.10;;;10.80;1.00;;;;;;4997274;28;20982;-76
2023/03/28 11:35:27;;;;;;;2.77;1.00;;;10.90;1.00;;;;;;5013702;28;20408;-76
2023/03/28 11:38:23;;;;;;;2.30;0.90;;;10.80;1.00;;;;;;5013945;28;20483;-76
2023/03/28 11:41:17;;;;;;;4.60;1.13;;;11.10;1.00;;;;;;5013791;28;20389;-76
2023/03/28 11:43:51;;;;;;;3.73;1.00;;;11.00;1.00;;;;;;5013853;28;20398;-76
2023/03/28 11:46:26;;;;;;;5.53;1.20;;;11.30;1.00;;;;;;5013501;28;20386;-76
2023/03/28 11:49:07;;;;;;;3.77;1.00;;;11.20;1.00;;;;;;5013647;28;20490;-76
2023/03/28 11:51:41;;;;;;;2.50;1.00;;;10.60;1.00;;;;;;5013791;28;20418;-76
2023/03/28 11:54:49;;;;;;;2.57;0.80;;;10.30;1.00;;;;;;5013632;28;20438;-80
2023/03/28 11:57:38;;;;;;;1.97;0.80;;;10.20;1.00;;;;;;4955467;29;20489;-80
2023/03/28 12:00:15;;;;;;;4.93;1.40;;;10.10;1.00;;;;;;4955008;28;20449;-80
2023/03/28 12:02:50;;;;;;;4.50;1.00;;;10.20;1.00;;;;;;4955227;29;20942;-80
2023/03/28 12:05:18;;;;;;;3.53;1.20;;;10.40;1.00;;;;;;4955700;28;20403;-80
2023/03/28 12:08:07;;;;;;;6.23;1.10;;;10.50;1.00;;;;;;5012708;28;20408;-76
2023/03/28 12:10:38;;;;;;;1.40;0.70;;;10.50;1.00;;;;;;5013098;28;20393;-76
2023/03/28 12:13:31;;;;;;;2.53;0.90;;;10.60;1.00;;;;;;5013035;28;20396;-76
2023/03/28 12:16:04;;;;;;;4.63;0.83;;;10.40;1.00;;;;;;5012937;28;20509;-76
2023/03/28 12:18:46;;;;;;;1.87;0.97;;;10.50;1.00;;;;;;5013178;28;20399;-76
2023/03/28 12:21:25;;;;;;;3.93;1.10;;;10.30;1.00;;;;;;5013590;28;20408;-76
2023/03/28 12:24:15;;;;;;;1.83;1.10;;;10.40;1.00;;;;;;5013466;28;20369;-80
2023/03/28 12:26:43;;;;;;;1.07;0.87;;;10.50;1.00;;;;;;5013093;28;20792;-81
2023/03/28 12:29:17;;;;;;;4.60;1.20;;;10.80;1.00;;;;;;5012736;28;20367;-80
2023/03/28 12:31:57;;;;;;;2.80;0.90;;;10.90;1.00;;;;;;5012861;28;20415;-80
2023/03/28 12:34:41;;;;;;;4.43;1.03;;;11.00;1.00;;;;;;5050496;28;21023;-80
2023/03/28 12:37:17;;;;;;;2.80;1.20;;;10.90;1.00;;;;;;5074585;28;20932;-80
2023/03/28 12:40:14;;;;;;;2.60;1.10;;;11.20;1.00;;;;;;5074231;28;20442;-81
2023/03/28 12:42:45;;;;;;;5.23;1.10;;;11.30;1.00;;;;;;5074432;28;20356;-80
2023/03/28 12:45:18;;;;;;;2.97;0.67;;;11.40;1.00;;;;;;5074290;28;20364;-80
2023/03/28 12:47:49;;;;;;;2.10;0.83;;;11.30;1.00;;;;;;5074307;28;20391;-80
2023/03/28 12:50:19;;;;;;;0.93;0.70;;;11.20;1.00;;;;;;5074036;28;20372;-80
2023/03/28 12:52:46;;;;;;;2.00;1.10;;;11.40;1.00;;;;;;5074498;28;20386;-76
2023/03/28 12:55:23;;;;;;;3.53;0.90;;;11.60;1.00;;;;;;5073917;28;20472;-76
2023/03/28 12:57:50;;;;;;;1.93;0.83;;;11.20;1.00;;;;;;5074138;28;20460;-75
2023/03/28 13:00:32;;;;;;;1.10;0.80;;;10.80;1.00;;;;;;5073879;28;20400;-75
2023/03/28 13:03:04;;;;;;;1.80;1.00;;;10.90;1.00;;;;;;5074412;28;20388;-76
2023/03/28 13:05:51;;;;;;;2.77;1.10;;;10.90;1.00;;;;;;5073827;28;20410;-76
2023/03/28 13:08:46;;;;;;;3.27;1.33;;;10.90;1.00;;;;;;5074396;28;20381;-76
2023/03/28 13:11:27;;;;;;;2.13;1.27;;;10.80;1.00;;;;;;5073772;28;20894;-76
2023/03/28 13:14:33;;;;;;;2.10;0.90;;;11.00;1.00;;;;;;5073768;28;20397;-76
2023/03/28 13:17:17;;;;;;;1.37;0.90;;;11.30;1.00;;;;;;5074850;28;20536;-75
2023/03/28 13:19:45;;;;;;;3.30;1.20;;;11.50;1.00;;;;;;5078577;28;20388;-76
2023/03/28 13:23:03;;;;;;;2.30;1.07;;;11.40;1.00;;;;;;5084402;28;20451;-76
2023/03/28 13:29:01;;;;;;;2.10;1.17;;;11.50;1.00;;;;;;5022400;28;20396;-80
2023/03/28 13:31:31;;;;;;;7.90;1.53;;;11.90;1.00;;;;;;5031296;28;20401;-80
2023/03/28 13:34:00;;;;;;;1.77;1.10;;;11.90;1.00;;;;;;5028550;28;20397;-80
2023/03/28 13:36:34;;;;;;;5.37;1.33;;;11.90;1.00;;;;;;5012041;28;20797;-80
2023/03/28 13:39:08;;;;;;;2.90;1.40;;;11.80;1.00;;;;;;5012210;28;20476;-80
2023/03/28 13:41:39;;;;;;;3.40;1.20;;;12.00;1.00;;;;;;5012238;28;20473;-79
2023/03/28 13:44:24;;;;;;;3.90;1.47;;;12.10;1.00;;;;;;5012094;28;20389;-81
2023/03/28 13:46:52;;;;;;;4.13;1.20;;;12.10;1.00;;;;;;5011803;28;20773;-80
2023/03/28 13:49:28;;;;;;;2.60;1.13;;;12.10;1.00;;;;;;4995223;28;20424;-83
2023/03/28 13:52:07;;;;;;;2.97;1.00;;;12.40;1.00;;;;;;5012542;28;20366;-93
2023/03/28 13:54:33;;;;;;;2.03;1.20;;;12.20;1.00;;;;;;5013611;28;20884;-91
2023/03/28 13:57:05;;;;;;;2.53;1.30;;;12.50;1.00;;;;;;5012453;28;20434;-88
2023/03/28 13:59:36;;;;;;;4.43;1.10;;;12.30;1.00;;;;;;4996508;28;20195;-88
2023/03/28 14:02:20;;;;;;;1.80;1.10;;;12.10;1.00;;;;;;5050538;28;20409;-87
2023/03/28 14:05:03;;;;;;;2.13;1.20;;;12.20;1.00;;;;;;5056225;28;20448;-88
2023/03/28 14:07:29;;;;;;;2.57;1.30;;;12.30;1.00;;;;;;5056447;28;20391;-88
2023/03/28 14:09:56;;;;;;;1.23;1.10;;;12.00;1.00;;;;;;5056263;28;20395;-90
2023/03/28 14:12:29;;;;;;;2.50;1.30;;;11.70;1.00;;;;;;5056124;28;20500;-91
2023/03/28 14:14:57;;;;;;;1.83;1.23;;;11.80;1.00;;;;;;5055857;28;20404;-88
2023/03/28 14:17:30;;;;;;;3.17;1.40;;;12.20;1.00;;;;;;5056037;28;20445;-86
2023/03/28 14:20:04;;;;;;;12.60;1.33;;;12.20;1.00;;;;;;5056639;28;20780;-86
2023/03/28 14:22:32;;;;;;;3.73;1.47;;;11.90;1.00;;;;;;5074038;28;20386;-86
2023/03/28 14:25:03;;;;;;;7.30;1.70;;;12.10;1.00;;;;;;5074556;28;20864;-89
2023/03/28 14:27:38;;;;;;;1.43;1.23;;;12.10;1.00;;;;;;5056438;28;20458;-91
2023/03/28 14:30:28;;;;;;;8.90;1.80;;;12.20;1.00;;;;;;5057323;28;20375;-91
2023/03/28 14:33:07;;;;;;;3.83;1.53;;;12.30;1.00;;;;;;5035946;28;20405;-91
2023/03/28 14:35:36;;;;;;;7.07;1.80;;;12.20;1.00;;;;;;5019426;28;20480;-90
2023/03/28 14:38:04;;;;;;;12.07;1.30;;;11.90;1.00;;;;;;5018997;28;20462;-90
2023/03/28 14:40:37;;;;;;;6.90;1.37;;;11.80;1.00;;;;;;5019199;28;20411;-89
2023/03/28 14:43:27;;;;;;;6.70;1.40;;;11.80;1.00;;;;;;5016201;28;20407;-91
2023/03/28 14:46:12;;;;;;;5.90;1.50;;;11.80;1.00;;;;;;5018865;28;20577;-95
2023/03/28 14:48:44;;;;;;;4.77;1.20;;;11.90;1.00;;;;;;5018874;28;20434;-93
2023/03/28 14:51:12;;;;;;;3.70;1.40;;;12.00;1.00;;;;;;5035743;28;20409;-95
2023/03/28 14:53:43;;;;;;;5.57;1.00;;;12.00;1.00;;;;;;5019112;28;20407;-89
2023/03/28 14:56:12;;;;;;;3.60;1.80;;;12.30;1.00;;;;;;5018652;28;20971;-88
2023/03/28 14:58:41;;;;;;;3.50;1.00;;;12.50;1.00;;;;;;5035247;28;20382;-89
2023/03/28 15:01:09;;;;;;;5.20;1.60;;;12.80;1.00;;;;;;5018684;28;20400;-88
2023/03/28 15:03:40;;;;;;;7.20;2.10;;;12.90;1.00;;;;;;5018746;28;20723;-88
2023/03/28 15:06:07;;;;;;;1.97;1.30;;;13.00;1.00;;;;;;5035437;28;20469;-88
2023/03/28 15:08:36;;;;;;;2.20;1.40;;;13.10;1.00;;;;;;5035612;28;20382;-94
2023/03/28 15:11:18;;;;;;;2.60;1.30;;;13.20;1.00;;;;;;5058025;28;20418;-95
2023/03/28 15:13:49;;;;;;;4.10;1.87;;;13.00;1.00;;;;;;5059070;28;20409;-95
2023/03/28 15:16:22;;;;;;;4.80;1.43;;;12.60;1.00;;;;;;5058638;28;20415;-95
2023/03/28 15:19:05;;;;;;;3.37;1.67;;;13.00;1.00;;;;;;5058715;28;20391;-94
2023/03/28 15:21:35;;;;;;;8.63;1.63;;;13.10;1.00;;;;;;5058841;28;20851;-95
2023/03/28 15:24:02;;;;;;;2.63;1.87;;;14.40;1.00;;;;;;5059271;28;20811;-90
2023/03/28 15:26:33;;;;;;;3.63;1.70;;;15.40;1.00;;;;;;5058777;28;20405;-89
2023/03/28 15:28:59;;;;;;;3.77;2.00;;;15.30;1.00;;;;;;5058495;28;20733;-90
2023/03/28 15:31:25;;;;;;;3.30;1.60;;;15.40;1.00;;;;;;5058774;28;20979;-88
2023/03/28 15:33:52;;;;;;;5.23;1.83;;;15.10;1.00;;;;;;5076092;28;20404;-84